Time;durP1;ratioP1;P1;durP2;ratioP2;P2;SDS_P1;SDS_P2;PMS_P1;PMS_P2;Temp;Humidity;BMP_temperature;BMP_pressure;BME280_temperature;BME280_humidity;BME280_pressure;Samples;Min_cycle;Max_cycle;Signal;HPM_P1;HPM_P2
2021/08/19 00:02:04;;;;;;;1999.90;999.90;;;;;;;20.27;59.89;100602.25;15859837;28;20059;-60
2021/08/19 00:09:37;;;;;;;1999.90;999.90;;;;;;;20.40;59.87;100599.84;15861676;28;20038;-60
2021/08/19 00:17:11;;;;;;;1999.90;999.90;;;;;;;19.99;61.01;100603.00;15871808;28;20035;-60
2021/08/19 00:24:44;;;;;;;1999.90;999.90;;;;;;;20.10;61.22;100601.00;15839439;28;20032;-59
2021/08/19 00:32:18;;;;;;;1999.90;999.90;;;;;;;20.16;61.05;100595.78;15852175;28;20047;-59
2021/08/19 00:39:50;;;;;;;1999.90;999.90;;;;;;;20.32;60.84;100595.38;15870333;28;20059;-60
2021/08/19 00:47:26;;;;;;;1999.90;999.90;;;;;;;20.22;61.11;100590.50;15834746;28;20411;-60
2021/08/19 00:54:59;;;;;;;1999.90;999.90;;;;;;;20.08;61.47;100597.75;15869599;28;20105;-60
2021/08/19 01:02:32;;;;;;;1999.90;999.90;;;;;;;20.08;61.50;100585.63;15868282;28;20444;-60
2021/08/19 01:10:05;;;;;;;1999.90;999.90;;;;;;;20.30;60.95;100594.97;15849683;28;20062;-60
2021/08/19 01:17:39;;;;;;;1999.90;999.90;;;;;;;20.34;60.71;100595.81;15867819;28;20449;-60
2021/08/19 01:25:11;;;;;;;1999.90;999.90;;;;;;;20.27;61.21;100592.94;15847924;28;20048;-59
2021/08/19 01:32:45;;;;;;;1999.90;999.90;;;;;;;20.12;61.79;100597.78;15867126;28;20040;-58
2021/08/19 01:40:17;;;;;;;1999.90;999.90;;;;;;;19.94;61.86;100591.25;15831746;28;20100;-60
2021/08/19 01:47:51;;;;;;;1999.90;999.90;;;;;;;19.91;62.20;100589.25;15848003;28;20043;-58
2021/08/19 01:55:23;;;;;;;1999.90;999.90;;;;;;;19.97;61.93;100596.94;15865652;28;20559;-60
2021/08/19 02:02:57;;;;;;;1999.90;999.90;;;;;;;19.93;62.11;100592.47;15865295;28;20464;-60
2021/08/19 02:10:29;;;;;;;1999.90;999.90;;;;;;;19.99;61.70;100588.03;15865083;28;20043;-60
2021/08/19 02:18:02;;;;;;;1999.90;999.90;;;;;;;19.92;62.15;100591.66;15864886;28;20538;-60
2021/08/19 02:25:35;;;;;;;1999.90;999.90;;;;;;;19.78;62.04;100580.28;15846295;28;20039;-60
2021/08/19 02:33:08;;;;;;;1999.90;999.90;;;;;;;19.88;61.73;100588.81;15844830;28;20078;-60
2021/08/19 02:40:41;;;;;;;1999.90;999.90;;;;;;;19.81;62.03;100583.13;15862986;28;20071;-60
2021/08/19 02:48:14;;;;;;;1999.90;999.90;;;;;;;19.71;62.34;100577.44;15827496;28;20050;-60
2021/08/19 02:55:46;;;;;;;1999.90;999.90;;;;;;;19.79;61.90;100567.75;15862175;28;20074;-58
2021/08/19 03:03:20;;;;;;;1999.90;999.90;;;;;;;19.59;62.86;100568.09;15862430;28;20052;-56
2021/08/19 03:10:52;;;;;;;1999.90;999.90;;;;;;;19.59;62.95;100570.94;15861183;28;20692;-58
2021/08/19 03:18:26;;;;;;;1999.90;999.90;;;;;;;19.51;63.11;100566.41;15861335;28;20492;-58
2021/08/19 03:25:58;;;;;;;1999.90;999.90;;;;;;;19.45;63.49;100558.69;15843297;28;20047;-56
2021/08/19 03:33:31;;;;;;;1999.90;999.90;;;;;;;19.27;64.06;100565.06;15799168;22;20424;-64
2021/08/19 03:41:04;;;;;;;1999.90;999.90;;;;;;;19.42;63.81;100570.81;15762778;28;20048;-63
2021/08/19 03:48:37;;;;;;;1999.90;999.90;;;;;;;19.39;63.97;100571.63;15814438;28;20080;-64
2021/08/19 03:56:10;;;;;;;1999.90;999.90;;;;;;;19.31;64.31;100580.06;15816572;28;20044;-64
2021/08/19 04:03:44;;;;;;;1999.90;999.90;;;;;;;19.15;65.03;100605.00;15816466;28;20071;-64
2021/08/19 04:11:16;;;;;;;1999.90;999.90;;;;;;;18.61;72.14;100615.06;15796886;28;20571;-64
2021/08/19 04:18:50;;;;;;;1999.90;999.90;;;;;;;18.37;74.80;100615.66;15796026;28;20063;-63
2021/08/19 04:26:22;;;;;;;1999.90;999.90;;;;;;;18.37;74.99;100610.00;15805466;28;20054;-64
2021/08/19 04:33:56;;;;;;;1999.90;999.90;;;;;;;18.30;75.52;100593.78;15796674;28;20070;-63
2021/08/19 04:41:28;;;;;;;1999.90;999.90;;;;;;;18.11;76.71;100620.19;15814298;28;20048;-63
2021/08/19 04:49:05;;;;;;;1999.90;999.90;;;;;;;18.18;76.93;100616.66;15813424;28;20056;-64
2021/08/19 04:56:38;;;;;;;1999.90;999.90;;;;;;;18.13;76.92;100623.47;15811174;28;20052;-64
2021/08/19 05:04:11;;;;;;;1999.90;999.90;;;;;;;18.37;75.89;100621.28;15810669;28;20035;-63
2021/08/19 05:11:44;;;;;;;1999.90;999.90;;;;;;;18.60;75.52;100635.22;15801265;28;20028;-63
2021/08/19 05:19:17;;;;;;;1999.90;999.90;;;;;;;18.66;74.46;100636.53;15803185;28;20032;-63
2021/08/19 05:26:50;;;;;;;1999.90;999.90;;;;;;;18.73;73.95;100642.22;15777018;28;20500;-64
2021/08/19 05:34:23;;;;;;;1999.90;999.90;;;;;;;18.66;73.56;100640.19;15807651;28;20036;-62
2021/08/19 05:41:56;;;;;;;1999.90;999.90;;;;;;;18.84;72.86;100642.31;15808035;28;20048;-62
2021/08/19 05:49:29;;;;;;;1999.90;999.90;;;;;;;19.07;71.66;100642.09;15808169;28;20481;-62
2021/08/19 05:57:01;;;;;;;1999.90;999.90;;;;;;;19.09;71.21;100651.03;15808148;28;20044;-62
2021/08/19 06:04:36;;;;;;;1999.90;999.90;;;;;;;19.12;70.84;100655.88;15788823;28;20105;-62
2021/08/19 06:12:08;;;;;;;1999.90;999.90;;;;;;;18.96;71.09;100653.31;15788402;28;20051;-63
2021/08/19 06:19:42;;;;;;;1999.90;999.90;;;;;;;19.30;70.45;100657.63;15787878;28;20493;-62
2021/08/19 06:27:14;;;;;;;1999.90;999.90;;;;;;;19.45;70.02;100669.84;15743467;28;20568;-63
2021/08/19 06:34:48;;;;;;;1999.90;999.90;;;;;;;19.36;69.31;100671.41;15724559;28;20040;-62
2021/08/19 06:42:20;;;;;;;1999.90;999.90;;;;;;;19.54;69.16;100670.31;15742472;28;20124;-62
2021/08/19 06:49:53;;;;;;;1999.90;999.90;;;;;;;19.79;68.31;100666.81;15741241;28;20074;-62
2021/08/19 06:57:27;;;;;;;1999.90;999.90;;;;;;;19.82;68.17;100672.53;15741180;28;20459;-63
2021/08/19 07:05:01;;;;;;;1999.90;999.90;;;;;;;19.71;67.77;100674.50;15723064;28;20044;-63
2021/08/19 07:12:33;;;;;;;1999.90;999.90;;;;;;;19.69;67.49;100673.25;15745239;28;20066;-62
2021/08/19 07:20:08;;;;;;;1999.90;999.90;;;;;;;20.01;66.90;100679.06;15747987;28;20040;-61
2021/08/19 07:27:41;;;;;;;1999.90;999.90;;;;;;;20.35;65.29;100677.56;15802661;28;20079;-63
2021/08/19 07:35:15;;;;;;;1999.90;999.90;;;;;;;20.44;65.07;100680.06;15802385;28;20484;-62
2021/08/19 07:42:47;;;;;;;1999.90;999.90;;;;;;;20.48;65.20;100680.88;15784047;28;20078;-62
2021/08/19 07:50:21;;;;;;;1999.90;999.90;;;;;;;20.20;65.65;100681.56;15801876;28;20493;-62
2021/08/19 07:57:53;;;;;;;1999.90;999.90;;;;;;;20.11;65.38;100678.28;15802029;28;20098;-62
2021/08/19 08:05:30;;;;;;;1999.90;999.90;;;;;;;20.30;65.36;100697.78;15783935;28;20032;-62
2021/08/19 08:13:02;;;;;;;1999.90;999.90;;;;;;;20.45;65.15;100702.34;15802398;28;20032;-62
2021/08/19 08:20:36;;;;;;;1999.90;999.90;;;;;;;20.66;64.56;100709.25;15794421;28;20037;-63
2021/08/19 08:28:10;;;;;;;1999.90;999.90;;;;;;;20.80;64.37;100714.13;15738465;28;20052;-62
2021/08/19 08:35:44;;;;;;;1999.90;999.90;;;;;;;20.57;64.04;100726.66;15747420;28;20044;-62
2021/08/19 08:43:20;;;;;;;1999.90;999.90;;;;;;;20.54;63.69;100730.28;15730625;28;20068;-60
2021/08/19 08:50:57;;;;;;;1999.90;999.90;;;;;;;20.37;63.48;100742.34;15749285;28;20044;-62
2021/08/19 08:58:29;;;;;;;1999.90;999.90;;;;;;;20.59;63.08;100752.56;15748679;28;20056;-62
2021/08/19 09:06:03;;;;;;;1999.90;999.90;;;;;;;20.58;64.24;100755.81;15729845;28;20408;-63
2021/08/19 09:13:35;;;;;;;1999.90;999.90;;;;;;;20.74;63.16;100756.28;15728940;28;20534;-63
2021/08/19 09:21:19;;;;;;;1999.90;999.90;;;;;;;20.55;63.44;100754.59;15757955;28;20067;-63
2021/08/19 09:29:18;;;;;;;1999.90;999.90;;;;;;;20.54;62.79;100766.34;15810323;28;20461;-62
2021/08/19 09:37:04;;;;;;;1999.90;999.90;;;;;;;21.31;60.56;100768.50;15810229;28;20048;-62
2021/08/19 09:44:38;;;;;;;1999.90;999.90;;;;;;;21.03;62.16;100777.78;15808144;28;20088;-61
2021/08/19 09:52:12;;;;;;;1999.90;999.90;;;;;;;20.98;62.50;100786.69;15808086;28;20052;-62
2021/08/19 09:59:45;;;;;;;1999.90;999.90;;;;;;;21.32;62.79;100783.50;15807338;28;20446;-61
2021/08/19 10:07:19;;;;;;;1999.90;999.90;;;;;;;21.39;61.30;100783.53;15805775;28;20089;-62
2021/08/19 10:14:51;;;;;;;1999.90;999.90;;;;;;;21.68;61.46;100772.97;15806566;28;20036;-61
2021/08/19 10:22:26;;;;;;;1999.90;999.90;;;;;;;23.41;56.35;100771.75;15806107;28;20051;-61
2021/08/19 10:30:03;;;;;;;1999.90;999.90;;;;;;;22.29;57.19;100772.81;15787067;28;20093;-61
2021/08/19 10:38:04;;;;;;;1999.90;999.90;;;;;;;22.16;58.42;100766.78;15805122;28;20503;-61
2021/08/19 10:45:41;;;;;;;1999.90;999.90;;;;;;;22.29;57.51;100769.97;15804680;28;20059;-62
2021/08/19 10:53:16;;;;;;;1999.90;999.90;;;;;;;21.88;58.08;100782.66;15785550;28;20055;-61
2021/08/19 11:00:49;;;;;;;1999.90;999.90;;;;;;;21.61;58.41;100773.78;15803764;28;20094;-60
2021/08/19 11:08:45;;;;;;;1999.90;999.90;;;;;;;22.15;57.48;100782.22;15803721;28;20071;-59
2021/08/19 11:16:18;;;;;;;1999.90;999.90;;;;;;;22.39;56.52;100778.47;15803326;28;20508;-61
2021/08/19 11:23:52;;;;;;;1999.90;999.90;;;;;;;22.19;56.24;100783.00;15751385;28;20110;-57
2021/08/19 11:31:26;;;;;;;1999.90;999.90;;;;;;;22.20;56.71;100773.28;15740806;28;20048;-62
2021/08/19 11:39:01;;;;;;;1999.90;999.90;;;;;;;22.44;56.61;100778.06;15739457;28;20040;-61
2021/08/19 11:46:35;;;;;;;1999.90;999.90;;;;;;;22.18;56.31;100787.06;15721635;28;20057;-61
2021/08/19 11:54:11;;;;;;;1999.90;999.90;;;;;;;23.17;56.69;100790.66;15739516;28;20049;-62
2021/08/19 12:01:49;;;;;;;1999.90;999.90;;;;;;;22.87;53.97;100796.97;15739007;28;20036;-62
2021/08/19 12:09:23;;;;;;;1999.90;999.90;;;;;;;23.10;55.02;100790.72;15748509;28;20048;-61
2021/08/19 12:16:56;;;;;;;1999.90;999.90;;;;;;;24.59;50.33;100797.81;15751102;28;20125;-60
2021/08/19 12:24:33;;;;;;;1999.90;999.90;;;;;;;26.19;48.57;100803.03;15790005;28;20047;-61
2021/08/19 12:32:06;;;;;;;1999.90;999.90;;;;;;;24.81;48.90;100801.22;15795359;28;20127;-62
2021/08/19 12:39:48;;;;;;;1999.90;999.90;;;;;;;25.40;48.63;100789.31;15795671;28;20044;-60
2021/08/19 12:47:31;;;;;;;1999.90;999.90;;;;;;;26.03;46.39;100789.44;15795315;28;20051;-61
2021/08/19 12:55:13;;;;;;;1999.90;999.90;;;;;;;25.70;47.49;100797.00;15811948;28;20050;-61
2021/08/19 13:02:46;;;;;;;1999.90;999.90;;;;;;;24.29;49.71;100800.63;15777352;28;20094;-59
2021/08/19 13:10:20;;;;;;;;;;;;;;;24.35;50.68;100807.50;15812895;28;20055;-62
2021/08/19 13:17:52;;;;;;;1999.90;999.90;;;;;;;24.36;49.92;100804.22;15812759;28;19976;-60
2021/08/19 13:25:26;;;;;;;1999.90;999.90;;;;;;;25.03;47.91;100796.03;15766265;28;20123;-59
2021/08/19 13:32:58;;;;;;;1999.90;999.90;;;;;;;24.41;49.28;100800.91;15748260;28;20493;-61
2021/08/19 13:40:32;;;;;;;1999.90;999.90;;;;;;;24.78;48.82;100799.19;15746577;28;20048;-60
2021/08/19 13:48:05;;;;;;;1999.90;999.90;;;;;;;24.87;48.32;100801.53;15745827;28;20048;-61
2021/08/19 13:55:39;;;;;;;1999.90;999.90;;;;;;;24.80;49.28;100799.56;15745167;28;20059;-60
2021/08/19 14:03:11;;;;;;;1999.90;999.90;;;;;;;26.01;47.66;100799.72;15745619;28;20047;-61
2021/08/19 14:10:45;;;;;;;1999.90;999.90;;;;;;;25.48;48.16;100807.97;15744796;28;20049;-60
2021/08/19 14:18:17;;;;;;;1999.90;999.90;;;;;;;24.63;50.31;100810.00;15743693;28;20049;-61
2021/08/19 14:25:51;;;;;;;1999.90;999.90;;;;;;;24.13;49.41;100810.56;15793398;28;20079;-61
2021/08/19 14:33:23;;;;;;;1999.90;999.90;;;;;;;23.97;51.13;100810.34;15804095;28;20093;-59
2021/08/19 14:40:57;;;;;;;1999.90;999.90;;;;;;;24.32;50.88;100814.06;15805064;28;20407;-61
2021/08/19 14:48:30;;;;;;;1999.90;999.90;;;;;;;24.33;51.36;100809.97;15805162;28;20364;-60
2021/08/19 14:56:06;;;;;;;1999.90;999.90;;;;;;;24.05;50.82;100806.16;15786619;28;20127;-61
2021/08/19 15:03:39;;;;;;;1999.90;999.90;;;;;;;24.58;51.52;100801.09;15803799;28;20127;-61
2021/08/19 15:11:12;;;;;;;1999.90;999.90;;;;;;;24.09;50.30;100806.16;15803469;28;20066;-61
2021/08/19 15:18:48;;;;;;;1999.90;999.90;;;;;;;24.13;51.43;100807.72;15785660;28;20047;-62
2021/08/19 15:26:23;;;;;;;1999.90;999.90;;;;;;;23.98;52.68;100811.16;15748790;28;20036;-60
2021/08/19 15:33:55;;;;;;;1999.90;999.90;;;;;;;23.73;53.07;100811.38;15751065;28;20044;-62
2021/08/19 15:41:29;;;;;;;1999.90;999.90;;;;;;;23.44;53.10;100811.59;15783075;28;20048;-60
2021/08/19 15:49:01;;;;;;;1999.90;999.90;;;;;;;23.43;54.09;100815.66;15791579;28;20302;-61
2021/08/19 15:56:35;;;;;;;1999.90;999.90;;;;;;;23.38;54.03;100821.00;15814090;28;20050;-60
2021/08/19 16:04:08;;;;;;;1999.90;999.90;;;;;;;23.39;54.58;100814.91;15813744;28;20300;-61
2021/08/19 16:11:41;;;;;;;1999.90;999.90;;;;;;;23.50;55.26;100818.47;15812355;28;20044;-60
2021/08/19 16:19:14;;;;;;;1999.90;999.90;;;;;;;23.47;54.72;100816.47;15795254;28;20043;-61
2021/08/19 16:26:47;;;;;;;1999.90;999.90;;;;;;;23.33;55.28;100819.41;15797383;28;20040;-60
2021/08/19 16:34:20;;;;;;;1999.90;999.90;;;;;;;23.39;55.97;100828.31;15810343;28;20047;-58
2021/08/19 16:41:53;;;;;;;1999.90;999.90;;;;;;;23.24;56.34;100828.44;15790595;28;20040;-60
2021/08/19 16:49:25;;;;;;;1999.90;999.90;;;;;;;23.24;56.86;100833.28;15809177;28;20075;-61
2021/08/19 16:57:00;;;;;;;1999.90;999.90;;;;;;;23.10;56.47;100831.34;15808275;28;20122;-61
2021/08/19 17:04:32;;;;;;;1999.90;999.90;;;;;;;22.94;57.30;100831.88;15808462;28;20500;-62
2021/08/19 17:12:06;;;;;;;1999.90;999.90;;;;;;;23.11;57.01;100823.63;15808016;28;20422;-59
2021/08/19 17:19:39;;;;;;;1999.90;999.90;;;;;;;22.84;57.30;100823.41;15787716;28;20044;-60
2021/08/19 17:27:12;;;;;;;1999.90;999.90;;;;;;;22.65;58.16;100833.22;15788758;28;20035;-62
2021/08/19 17:34:45;;;;;;;1999.90;999.90;;;;;;;22.45;58.38;100825.16;15789321;28;20305;-60
2021/08/19 17:42:19;;;;;;;1999.90;999.90;;;;;;;22.60;58.64;100827.94;15790977;28;20443;-61
2021/08/19 17:49:51;;;;;;;1999.90;999.90;;;;;;;22.37;59.38;100832.06;15801471;28;20469;-61
2021/08/19 17:57:25;;;;;;;1999.90;999.90;;;;;;;22.41;59.63;100820.72;15800192;28;20040;-61
2021/08/19 18:04:58;;;;;;;1999.90;999.90;;;;;;;22.38;59.72;100815.84;15802696;28;20048;-62
2021/08/19 18:12:33;;;;;;;1999.90;999.90;;;;;;;22.27;60.50;100815.88;15785278;28;20036;-61
2021/08/19 18:20:08;;;;;;;1999.90;999.90;;;;;;;22.12;60.97;100823.63;15783551;28;20109;-62
2021/08/19 18:27:43;;;;;;;1999.90;999.90;;;;;;;22.23;61.62;100828.47;15779151;28;20294;-61
2021/08/19 18:35:16;;;;;;;1999.90;999.90;;;;;;;22.00;62.45;100840.28;15766769;28;20051;-61
2021/08/19 18:42:50;;;;;;;1999.90;999.90;;;;;;;21.93;62.86;100852.44;15772268;28;20050;-59
2021/08/19 18:50:23;;;;;;;1999.90;999.90;;;;;;;21.86;62.87;100853.25;15797077;28;20488;-60
2021/08/19 18:57:57;;;;;;;1999.90;999.90;;;;;;;21.89;63.51;100852.47;15801754;28;20052;-62
2021/08/19 19:05:29;;;;;;;1999.90;999.90;;;;;;;21.62;64.37;100865.44;15801433;28;20040;-61
2021/08/19 19:13:03;;;;;;;1999.90;999.90;;;;;;;21.79;63.96;100853.28;15767689;28;20044;-61
2021/08/19 19:20:37;;;;;;;1999.90;999.90;;;;;;;21.64;64.62;100859.34;15781920;28;20036;-62
2021/08/19 19:28:12;;;;;;;1999.90;999.90;;;;;;;21.70;64.34;100866.25;15800494;28;20127;-60
2021/08/19 19:35:44;;;;;;;1999.90;999.90;;;;;;;21.63;64.46;100869.91;15798699;28;20040;-61
2021/08/19 19:43:17;;;;;;;1999.90;999.90;;;;;;;21.53;65.24;100877.19;15803314;28;20039;-63
2021/08/19 19:50:50;;;;;;;1999.90;999.90;;;;;;;21.61;65.28;100880.88;15806596;28;20040;-61
2021/08/19 19:58:23;;;;;;;1999.90;999.90;;;;;;;21.55;65.55;100871.91;15776355;28;20048;-61
2021/08/19 20:05:55;;;;;;;1999.90;999.90;;;;;;;21.58;65.21;100876.00;15780652;28;20059;-62
2021/08/19 20:13:29;;;;;;;1999.90;999.90;;;;;;;21.58;65.27;100881.69;15797199;28;20059;-61
2021/08/19 20:21:01;;;;;;;1999.90;999.90;;;;;;;21.61;65.55;100881.66;15761953;28;20059;-61
2021/08/19 20:28:35;;;;;;;1999.90;999.90;;;;;;;21.48;65.65;100882.47;15773376;28;20507;-61
2021/08/19 20:36:07;;;;;;;1999.90;999.90;;;;;;;21.48;65.61;100879.63;15808892;28;20557;-59
2021/08/19 20:43:41;;;;;;;1999.90;999.90;;;;;;;21.51;65.62;100881.66;15789309;28;20109;-60
2021/08/19 20:51:13;;;;;;;1999.90;999.90;;;;;;;21.60;65.39;100887.75;15806977;28;20071;-62
2021/08/19 20:58:47;;;;;;;1999.90;999.90;;;;;;;21.47;65.81;100886.53;15790011;28;20063;-61
2021/08/19 21:06:19;;;;;;;1999.90;999.90;;;;;;;21.41;66.02;100894.63;15809677;28;20033;-61
2021/08/19 21:13:52;;;;;;;1999.90;999.90;;;;;;;21.40;66.54;100895.84;15807926;28;20123;-61
2021/08/19 21:21:26;;;;;;;1999.90;999.90;;;;;;;21.35;66.49;100898.25;15803134;28;20774;-60
2021/08/19 21:29:00;;;;;;;1999.90;999.90;;;;;;;21.37;66.01;100908.00;15806758;28;20048;-61
2021/08/19 21:36:33;;;;;;;1999.90;999.90;;;;;;;21.18;66.67;100911.97;15642516;22;20106;-60
2021/08/19 21:44:07;;;;;;;1999.90;999.90;;;;;;;21.32;66.74;100922.56;15673980;28;20049;-57
2021/08/19 21:51:39;;;;;;;1999.90;999.90;;;;;;;21.23;67.07;100925.75;15711447;28;20037;-58
2021/08/19 21:59:13;;;;;;;1999.90;999.90;;;;;;;21.21;67.27;100925.34;15695735;28;20051;-59
2021/08/19 22:06:45;;;;;;;1999.90;999.90;;;;;;;21.19;67.13;100922.13;15691949;28;20154;-60
2021/08/19 22:14:19;;;;;;;1999.90;999.90;;;;;;;21.12;67.81;100915.59;15685894;28;20041;-56
2021/08/19 22:21:51;;;;;;;1999.90;999.90;;;;;;;21.29;67.57;100904.34;15686033;28;20485;-57
2021/08/19 22:29:25;;;;;;;1999.90;999.90;;;;;;;21.17;67.93;100920.91;15687358;28;20037;-56
2021/08/19 22:36:57;;;;;;;1999.90;999.90;;;;;;;21.03;68.10;100911.09;15701689;28;20166;-59
2021/08/19 22:44:32;;;;;;;1999.90;999.90;;;;;;;20.95;68.90;100926.50;15699618;28;20068;-55
2021/08/19 22:52:06;;;;;;;1999.90;999.90;;;;;;;20.96;68.97;100930.94;15673477;28;20115;-58
2021/08/19 22:59:39;;;;;;;1999.90;999.90;;;;;;;21.03;68.71;100939.47;15705608;28;20071;-59
2021/08/19 23:07:11;;;;;;;1999.90;999.90;;;;;;;20.95;68.94;100946.34;15674308;28;20041;-57
2021/08/19 23:14:45;;;;;;;1999.90;999.90;;;;;;;20.96;69.10;100941.50;15679231;28;20037;-58
2021/08/19 23:22:17;;;;;;;1999.90;999.90;;;;;;;20.90;69.60;100945.91;15674895;28;20048;-57
2021/08/19 23:29:51;;;;;;;1999.90;999.90;;;;;;;20.83;69.95;100957.22;15675790;28;20049;-56
2021/08/19 23:37:23;;;;;;;1999.90;999.90;;;;;;;21.05;69.41;100958.94;15698623;28;20413;-56
2021/08/19 23:44:57;;;;;;;1999.90;999.90;;;;;;;21.03;69.62;100962.16;15671724;28;20055;-58
2021/08/19 23:52:29;;;;;;;1999.90;999.90;;;;;;;20.96;69.66;100964.19;15674708;28;20041;-56
